sensor_id;sensor_type;location;lat;lon;timestamp;P1;durP1;ratioP1;P2;durP2;ratioP2
56073;SDS011;41950;55.840;37.442;2023-04-24T00:01:14;13.07;;;7.43;;
56073;SDS011;41950;55.840;37.442;2023-04-24T00:03:40;15.25;;;7.63;;
56073;SDS011;41950;55.840;37.442;2023-04-24T00:06:06;13.85;;;6.95;;
56073;SDS011;41950;55.840;37.442;2023-04-24T00:08:36;13.63;;;6.72;;
56073;SDS011;41950;55.840;37.442;2023-04-24T00:11:02;14.25;;;7.10;;
56073;SDS011;41950;55.840;37.442;2023-04-24T00:13:28;11.40;;;7.18;;
56073;SDS011;41950;55.840;37.442;2023-04-24T00:15:54;17.77;;;7.80;;
56073;SDS011;41950;55.840;37.442;2023-04-24T00:18:21;12.98;;;7.35;;
56073;SDS011;41950;55.840;37.442;2023-04-24T00:20:47;15.45;;;7.20;;
56073;SDS011;41950;55.840;37.442;2023-04-24T00:23:13;13.88;;;7.57;;
56073;SDS011;41950;55.840;37.442;2023-04-24T00:25:39;14.85;;;7.65;;
56073;SDS011;41950;55.840;37.442;2023-04-24T00:28:05;15.38;;;8.02;;
56073;SDS011;41950;55.840;37.442;2023-04-24T00:30:31;15.95;;;7.78;;
56073;SDS011;41950;55.840;37.442;2023-04-24T00:32:57;14.07;;;8.40;;
56073;SDS011;41950;55.840;37.442;2023-04-24T00:35:23;14.30;;;7.78;;
56073;SDS011;41950;55.840;37.442;2023-04-24T00:37:49;11.95;;;8.18;;
56073;SDS011;41950;55.840;37.442;2023-04-24T00:40:15;16.25;;;8.32;;
56073;SDS011;41950;55.840;37.442;2023-04-24T00:42:41;15.20;;;8.27;;
56073;SDS011;41950;55.840;37.442;2023-04-24T00:45:08;17.58;;;8.40;;
56073;SDS011;41950;55.840;37.442;2023-04-24T00:47:34;17.33;;;8.05;;
56073;SDS011;41950;55.840;37.442;2023-04-24T00:50:04;15.52;;;8.35;;
56073;SDS011;41950;55.840;37.442;2023-04-24T00:52:32;15.50;;;8.60;;
56073;SDS011;41950;55.840;37.442;2023-04-24T00:54:58;15.48;;;8.55;;
56073;SDS011;41950;55.840;37.442;2023-04-24T00:57:24;18.83;;;8.68;;
56073;SDS011;41950;55.840;37.442;2023-04-24T00:59:51;14.85;;;8.13;;
56073;SDS011;41950;55.840;37.442;2023-04-24T01:02:18;14.80;;;8.00;;
56073;SDS011;41950;55.840;37.442;2023-04-24T01:04:46;15.98;;;9.13;;
56073;SDS011;41950;55.840;37.442;2023-04-24T01:07:12;26.52;;;9.35;;
56073;SDS011;41950;55.840;37.442;2023-04-24T01:09:39;18.02;;;10.05;;
56073;SDS011;41950;55.840;37.442;2023-04-24T01:12:07;23.10;;;9.80;;
56073;SDS011;41950;55.840;37.442;2023-04-24T01:14:33;24.27;;;10.70;;
56073;SDS011;41950;55.840;37.442;2023-04-24T01:16:59;22.48;;;10.40;;
56073;SDS011;41950;55.840;37.442;2023-04-24T01:19:25;22.98;;;9.95;;
56073;SDS011;41950;55.840;37.442;2023-04-24T01:21:52;20.85;;;10.52;;
56073;SDS011;41950;55.840;37.442;2023-04-24T01:24:19;28.52;;;10.93;;
56073;SDS011;41950;55.840;37.442;2023-04-24T01:26:45;28.00;;;11.18;;
56073;SDS011;41950;55.840;37.442;2023-04-24T01:29:12;24.58;;;10.48;;
56073;SDS011;41950;55.840;37.442;2023-04-24T01:31:38;20.88;;;10.48;;
56073;SDS011;41950;55.840;37.442;2023-04-24T01:34:05;20.80;;;10.50;;
56073;SDS011;41950;55.840;37.442;2023-04-24T01:36:32;24.58;;;10.27;;
56073;SDS011;41950;55.840;37.442;2023-04-24T01:39:00;21.58;;;10.70;;
56073;SDS011;41950;55.840;37.442;2023-04-24T01:41:26;21.48;;;10.48;;
56073;SDS011;41950;55.840;37.442;2023-04-24T01:43:52;25.23;;;9.73;;
56073;SDS011;41950;55.840;37.442;2023-04-24T01:46:19;29.75;;;10.50;;
56073;SDS011;41950;55.840;37.442;2023-04-24T01:48:45;23.80;;;9.40;;
56073;SDS011;41950;55.840;37.442;2023-04-24T01:51:11;24.58;;;10.15;;
56073;SDS011;41950;55.840;37.442;2023-04-24T01:53:40;23.23;;;8.45;;
56073;SDS011;41950;55.840;37.442;2023-04-24T01:56:06;20.25;;;8.52;;
56073;SDS011;41950;55.840;37.442;2023-04-24T01:58:32;19.25;;;8.30;;
56073;SDS011;41950;55.840;37.442;2023-04-24T02:00:58;21.45;;;9.32;;
56073;SDS011;41950;55.840;37.442;2023-04-24T02:03:26;20.25;;;8.43;;
56073;SDS011;41950;55.840;37.442;2023-04-24T02:05:52;18.90;;;8.80;;
56073;SDS011;41950;55.840;37.442;2023-04-24T02:08:18;23.40;;;9.38;;
56073;SDS011;41950;55.840;37.442;2023-04-24T02:10:43;22.48;;;9.00;;
56073;SDS011;41950;55.840;37.442;2023-04-24T02:13:10;17.60;;;8.90;;
56073;SDS011;41950;55.840;37.442;2023-04-24T02:15:36;19.30;;;8.48;;
56073;SDS011;41950;55.840;37.442;2023-04-24T02:18:02;14.27;;;8.13;;
56073;SDS011;41950;55.840;37.442;2023-04-24T02:20:28;17.85;;;7.53;;
56073;SDS011;41950;55.840;37.442;2023-04-24T02:22:54;15.30;;;7.55;;
56073;SDS011;41950;55.840;37.442;2023-04-24T02:25:20;13.70;;;7.45;;
56073;SDS011;41950;55.840;37.442;2023-04-24T02:27:47;15.07;;;7.45;;
56073;SDS011;41950;55.840;37.442;2023-04-24T02:30:12;14.25;;;7.82;;
56073;SDS011;41950;55.840;37.442;2023-04-24T02:32:39;14.45;;;7.60;;
56073;SDS011;41950;55.840;37.442;2023-04-24T02:35:05;14.70;;;7.97;;
56073;SDS011;41950;55.840;37.442;2023-04-24T02:37:31;15.10;;;7.45;;
56073;SDS011;41950;55.840;37.442;2023-04-24T02:39:57;15.35;;;7.65;;
56073;SDS011;41950;55.840;37.442;2023-04-24T02:42:23;14.60;;;7.50;;
56073;SDS011;41950;55.840;37.442;2023-04-24T02:44:48;14.65;;;7.97;;
56073;SDS011;41950;55.840;37.442;2023-04-24T02:47:16;15.27;;;7.63;;
56073;SDS011;41950;55.840;37.442;2023-04-24T02:49:42;13.50;;;7.43;;
56073;SDS011;41950;55.840;37.442;2023-04-24T02:52:08;12.15;;;7.32;;
56073;SDS011;41950;55.840;37.442;2023-04-24T02:54:33;13.15;;;7.78;;
56073;SDS011;41950;55.840;37.442;2023-04-24T02:56:59;13.38;;;7.45;;
56073;SDS011;41950;55.840;37.442;2023-04-24T02:59:26;12.75;;;7.45;;
56073;SDS011;41950;55.840;37.442;2023-04-24T03:01:54;14.00;;;7.90;;
56073;SDS011;41950;55.840;37.442;2023-04-24T03:04:19;16.65;;;8.60;;
56073;SDS011;41950;55.840;37.442;2023-04-24T03:06:45;13.40;;;8.23;;
56073;SDS011;41950;55.840;37.442;2023-04-24T03:09:11;18.10;;;8.40;;
56073;SDS011;41950;55.840;37.442;2023-04-24T03:11:37;13.35;;;8.30;;
56073;SDS011;41950;55.840;37.442;2023-04-24T03:14:02;18.70;;;8.55;;
56073;SDS011;41950;55.840;37.442;2023-04-24T03:16:28;17.40;;;8.88;;
56073;SDS011;41950;55.840;37.442;2023-04-24T03:18:54;13.43;;;8.90;;
56073;SDS011;41950;55.840;37.442;2023-04-24T03:21:20;14.38;;;8.30;;
56073;SDS011;41950;55.840;37.442;2023-04-24T03:23:46;14.93;;;8.15;;
56073;SDS011;41950;55.840;37.442;2023-04-24T03:26:11;18.73;;;8.45;;
56073;SDS011;41950;55.840;37.442;2023-04-24T03:28:37;13.98;;;7.97;;
56073;SDS011;41950;55.840;37.442;2023-04-24T03:31:03;12.32;;;8.45;;
56073;SDS011;41950;55.840;37.442;2023-04-24T03:33:29;12.80;;;7.95;;
56073;SDS011;41950;55.840;37.442;2023-04-24T03:35:55;15.38;;;7.90;;
56073;SDS011;41950;55.840;37.442;2023-04-24T03:38:21;16.83;;;8.43;;
56073;SDS011;41950;55.840;37.442;2023-04-24T03:40:46;17.92;;;7.88;;
56073;SDS011;41950;55.840;37.442;2023-04-24T03:43:12;17.02;;;9.35;;
56073;SDS011;41950;55.840;37.442;2023-04-24T03:45:38;17.73;;;8.95;;
56073;SDS011;41950;55.840;37.442;2023-04-24T03:48:04;21.15;;;9.27;;
56073;SDS011;41950;55.840;37.442;2023-04-24T03:50:30;17.58;;;8.88;;
56073;SDS011;41950;55.840;37.442;2023-04-24T03:52:56;18.80;;;10.00;;
56073;SDS011;41950;55.840;37.442;2023-04-24T03:55:22;22.67;;;9.13;;
56073;SDS011;41950;55.840;37.442;2023-04-24T03:57:47;19.00;;;8.88;;
56073;SDS011;41950;55.840;37.442;2023-04-24T04:00:13;27.95;;;10.73;;
56073;SDS011;41950;55.840;37.442;2023-04-24T04:02:42;31.48;;;11.02;;
56073;SDS011;41950;55.840;37.442;2023-04-24T04:05:08;21.88;;;9.80;;
56073;SDS011;41950;55.840;37.442;2023-04-24T04:07:34;18.52;;;9.30;;
56073;SDS011;41950;55.840;37.442;2023-04-24T04:10:00;16.55;;;9.27;;
56073;SDS011;41950;55.840;37.442;2023-04-24T04:12:26;14.93;;;8.88;;
56073;SDS011;41950;55.840;37.442;2023-04-24T04:14:51;14.32;;;7.63;;
56073;SDS011;41950;55.840;37.442;2023-04-24T04:17:17;14.55;;;9.02;;
56073;SDS011;41950;55.840;37.442;2023-04-24T04:19:43;15.38;;;8.68;;
56073;SDS011;41950;55.840;37.442;2023-04-24T04:22:09;18.75;;;9.05;;
56073;SDS011;41950;55.840;37.442;2023-04-24T04:24:35;14.25;;;7.55;;
56073;SDS011;41950;55.840;37.442;2023-04-24T04:27:03;13.93;;;8.23;;
56073;SDS011;41950;55.840;37.442;2023-04-24T04:29:30;14.70;;;8.27;;
56073;SDS011;41950;55.840;37.442;2023-04-24T04:31:56;16.67;;;8.55;;
56073;SDS011;41950;55.840;37.442;2023-04-24T04:34:23;13.85;;;8.85;;
56073;SDS011;41950;55.840;37.442;2023-04-24T04:36:49;15.18;;;8.65;;
56073;SDS011;41950;55.840;37.442;2023-04-24T04:39:15;15.35;;;8.48;;
56073;SDS011;41950;55.840;37.442;2023-04-24T04:41:43;14.75;;;8.43;;
56073;SDS011;41950;55.840;37.442;2023-04-24T04:44:11;15.25;;;8.32;;
56073;SDS011;41950;55.840;37.442;2023-04-24T04:46:37;14.50;;;8.50;;
56073;SDS011;41950;55.840;37.442;2023-04-24T04:49:03;16.02;;;8.90;;
56073;SDS011;41950;55.840;37.442;2023-04-24T04:51:30;15.52;;;9.00;;
56073;SDS011;41950;55.840;37.442;2023-04-24T04:53:56;13.73;;;8.13;;
56073;SDS011;41950;55.840;37.442;2023-04-24T04:56:22;14.68;;;8.85;;
56073;SDS011;41950;55.840;37.442;2023-04-24T04:58:51;19.33;;;9.00;;
56073;SDS011;41950;55.840;37.442;2023-04-24T05:01:17;16.05;;;8.75;;
56073;SDS011;41950;55.840;37.442;2023-04-24T05:03:43;12.27;;;8.88;;
56073;SDS011;41950;55.840;37.442;2023-04-24T05:06:08;13.68;;;8.45;;
56073;SDS011;41950;55.840;37.442;2023-04-24T05:08:34;14.80;;;8.07;;
56073;SDS011;41950;55.840;37.442;2023-04-24T05:11:01;13.07;;;8.35;;
56073;SDS011;41950;55.840;37.442;2023-04-24T05:13:27;13.80;;;8.88;;
56073;SDS011;41950;55.840;37.442;2023-04-24T05:15:52;11.85;;;8.70;;
56073;SDS011;41950;55.840;37.442;2023-04-24T05:18:18;11.98;;;8.60;;
56073;SDS011;41950;55.840;37.442;2023-04-24T05:20:44;14.32;;;8.85;;
56073;SDS011;41950;55.840;37.442;2023-04-24T05:23:12;16.58;;;9.25;;
56073;SDS011;41950;55.840;37.442;2023-04-24T05:25:38;11.40;;;8.88;;
56073;SDS011;41950;55.840;37.442;2023-04-24T05:28:08;11.77;;;8.32;;
56073;SDS011;41950;55.840;37.442;2023-04-24T05:30:33;12.10;;;8.23;;
56073;SDS011;41950;55.840;37.442;2023-04-24T05:32:59;13.40;;;8.77;;
56073;SDS011;41950;55.840;37.442;2023-04-24T05:35:25;12.30;;;8.57;;
56073;SDS011;41950;55.840;37.442;2023-04-24T05:37:51;11.23;;;7.45;;
56073;SDS011;41950;55.840;37.442;2023-04-24T05:40:17;12.63;;;8.57;;
56073;SDS011;41950;55.840;37.442;2023-04-24T05:42:43;13.32;;;7.72;;
56073;SDS011;41950;55.840;37.442;2023-04-24T05:45:08;13.05;;;7.88;;
56073;SDS011;41950;55.840;37.442;2023-04-24T05:47:40;11.27;;;7.33;;
56073;SDS011;41950;55.840;37.442;2023-04-24T05:50:05;12.98;;;7.93;;
56073;SDS011;41950;55.840;37.442;2023-04-24T05:52:32;12.13;;;8.18;;
56073;SDS011;41950;55.840;37.442;2023-04-24T05:54:58;12.30;;;8.52;;
56073;SDS011;41950;55.840;37.442;2023-04-24T05:57:24;11.23;;;6.93;;
56073;SDS011;41950;55.840;37.442;2023-04-24T05:59:50;9.35;;;6.68;;
56073;SDS011;41950;55.840;37.442;2023-04-24T06:02:16;10.02;;;7.35;;
56073;SDS011;41950;55.840;37.442;2023-04-24T06:04:45;15.43;;;8.63;;
56073;SDS011;41950;55.840;37.442;2023-04-24T06:07:11;12.75;;;7.82;;
56073;SDS011;41950;55.840;37.442;2023-04-24T06:09:42;13.93;;;7.97;;
56073;SDS011;41950;55.840;37.442;2023-04-24T06:12:12;11.68;;;8.40;;
56073;SDS011;41950;55.840;37.442;2023-04-24T06:14:40;10.88;;;7.32;;
56073;SDS011;41950;55.840;37.442;2023-04-24T06:17:06;13.02;;;8.30;;
56073;SDS011;41950;55.840;37.442;2023-04-24T06:19:32;14.23;;;7.20;;
56073;SDS011;41950;55.840;37.442;2023-04-24T06:21:58;16.92;;;8.13;;
56073;SDS011;41950;55.840;37.442;2023-04-24T06:24:27;15.82;;;8.00;;
56073;SDS011;41950;55.840;37.442;2023-04-24T06:26:53;13.70;;;7.20;;
56073;SDS011;41950;55.840;37.442;2023-04-24T06:29:19;12.57;;;6.65;;
56073;SDS011;41950;55.840;37.442;2023-04-24T06:31:45;12.05;;;7.30;;
56073;SDS011;41950;55.840;37.442;2023-04-24T06:34:10;13.80;;;7.22;;
56073;SDS011;41950;55.840;37.442;2023-04-24T06:36:36;11.65;;;7.03;;
56073;SDS011;41950;55.840;37.442;2023-04-24T06:39:02;13.85;;;7.03;;
56073;SDS011;41950;55.840;37.442;2023-04-24T06:41:29;14.00;;;7.45;;
56073;SDS011;41950;55.840;37.442;2023-04-24T06:43:55;9.90;;;6.60;;
56073;SDS011;41950;55.840;37.442;2023-04-24T06:46:21;10.77;;;6.80;;
56073;SDS011;41950;55.840;37.442;2023-04-24T06:48:54;13.95;;;7.30;;
56073;SDS011;41950;55.840;37.442;2023-04-24T06:51:26;13.93;;;6.82;;
56073;SDS011;41950;55.840;37.442;2023-04-24T06:53:52;11.43;;;6.32;;
56073;SDS011;41950;55.840;37.442;2023-04-24T06:56:22;11.02;;;6.72;;
56073;SDS011;41950;55.840;37.442;2023-04-24T06:58:48;11.77;;;6.60;;
56073;SDS011;41950;55.840;37.442;2023-04-24T07:01:13;9.07;;;5.95;;
56073;SDS011;41950;55.840;37.442;2023-04-24T07:03:39;10.68;;;6.30;;
56073;SDS011;41950;55.840;37.442;2023-04-24T07:06:05;11.77;;;5.88;;
56073;SDS011;41950;55.840;37.442;2023-04-24T07:08:31;9.00;;;6.10;;
56073;SDS011;41950;55.840;37.442;2023-04-24T07:10:58;9.32;;;5.30;;
56073;SDS011;41950;55.840;37.442;2023-04-24T07:13:24;11.00;;;5.80;;
56073;SDS011;41950;55.840;37.442;2023-04-24T07:15:53;10.23;;;5.60;;
56073;SDS011;41950;55.840;37.442;2023-04-24T07:18:21;11.57;;;5.97;;
56073;SDS011;41950;55.840;37.442;2023-04-24T07:20:47;10.02;;;5.43;;
56073;SDS011;41950;55.840;37.442;2023-04-24T07:23:16;9.43;;;4.80;;
56073;SDS011;41950;55.840;37.442;2023-04-24T07:25:42;10.88;;;5.07;;
56073;SDS011;41950;55.840;37.442;2023-04-24T07:28:09;10.05;;;5.10;;
56073;SDS011;41950;55.840;37.442;2023-04-24T07:30:35;10.82;;;5.00;;
56073;SDS011;41950;55.840;37.442;2023-04-24T07:33:01;8.30;;;5.07;;
56073;SDS011;41950;55.840;37.442;2023-04-24T07:35:27;8.00;;;4.35;;
56073;SDS011;41950;55.840;37.442;2023-04-24T07:37:52;8.75;;;3.92;;
56073;SDS011;41950;55.840;37.442;2023-04-24T07:40:19;9.55;;;4.85;;
56073;SDS011;41950;55.840;37.442;2023-04-24T07:42:45;7.03;;;4.03;;
56073;SDS011;41950;55.840;37.442;2023-04-24T07:45:15;6.82;;;4.18;;
56073;SDS011;41950;55.840;37.442;2023-04-24T07:47:41;6.70;;;3.97;;
56073;SDS011;41950;55.840;37.442;2023-04-24T07:50:09;7.10;;;4.03;;
56073;SDS011;41950;55.840;37.442;2023-04-24T07:52:35;7.15;;;4.63;;
56073;SDS011;41950;55.840;37.442;2023-04-24T07:55:01;7.03;;;4.20;;
56073;SDS011;41950;55.840;37.442;2023-04-24T07:57:31;6.35;;;3.45;;
56073;SDS011;41950;55.840;37.442;2023-04-24T07:59:57;6.20;;;3.20;;
56073;SDS011;41950;55.840;37.442;2023-04-24T08:02:23;6.47;;;3.53;;
56073;SDS011;41950;55.840;37.442;2023-04-24T08:04:52;5.22;;;3.75;;
56073;SDS011;41950;55.840;37.442;2023-04-24T08:07:21;4.90;;;3.85;;
56073;SDS011;41950;55.840;37.442;2023-04-24T08:09:47;5.38;;;3.45;;
56073;SDS011;41950;55.840;37.442;2023-04-24T08:12:12;7.70;;;4.05;;
56073;SDS011;41950;55.840;37.442;2023-04-24T08:14:42;5.30;;;3.28;;
56073;SDS011;41950;55.840;37.442;2023-04-24T08:17:08;5.78;;;3.70;;
56073;SDS011;41950;55.840;37.442;2023-04-24T08:19:34;6.13;;;3.58;;
56073;SDS011;41950;55.840;37.442;2023-04-24T08:21:59;5.35;;;3.85;;
56073;SDS011;41950;55.840;37.442;2023-04-24T08:24:25;4.70;;;3.20;;
56073;SDS011;41950;55.840;37.442;2023-04-24T08:26:51;5.30;;;3.90;;
56073;SDS011;41950;55.840;37.442;2023-04-24T08:29:19;6.05;;;3.60;;
56073;SDS011;41950;55.840;37.442;2023-04-24T08:31:46;6.00;;;4.10;;
56073;SDS011;41950;55.840;37.442;2023-04-24T08:34:11;6.43;;;3.97;;
56073;SDS011;41950;55.840;37.442;2023-04-24T08:36:38;6.80;;;4.30;;
56073;SDS011;41950;55.840;37.442;2023-04-24T08:39:06;3.88;;;2.83;;
56073;SDS011;41950;55.840;37.442;2023-04-24T08:41:32;9.00;;;4.03;;
56073;SDS011;41950;55.840;37.442;2023-04-24T08:44:00;5.68;;;3.40;;
56073;SDS011;41950;55.840;37.442;2023-04-24T08:46:27;8.32;;;4.10;;
56073;SDS011;41950;55.840;37.442;2023-04-24T08:48:55;7.28;;;4.07;;
56073;SDS011;41950;55.840;37.442;2023-04-24T08:51:21;8.07;;;4.28;;
56073;SDS011;41950;55.840;37.442;2023-04-24T08:53:49;7.28;;;4.00;;
56073;SDS011;41950;55.840;37.442;2023-04-24T08:56:17;5.95;;;3.97;;
56073;SDS011;41950;55.840;37.442;2023-04-24T08:58:43;7.72;;;4.38;;
56073;SDS011;41950;55.840;37.442;2023-04-24T09:01:09;6.22;;;3.75;;
56073;SDS011;41950;55.840;37.442;2023-04-24T09:03:36;6.20;;;3.90;;
56073;SDS011;41950;55.840;37.442;2023-04-24T09:06:04;7.35;;;3.80;;
56073;SDS011;41950;55.840;37.442;2023-04-24T09:08:33;7.82;;;4.10;;
56073;SDS011;41950;55.840;37.442;2023-04-24T09:10:59;5.80;;;3.58;;
56073;SDS011;41950;55.840;37.442;2023-04-24T09:13:27;4.95;;;3.40;;
56073;SDS011;41950;55.840;37.442;2023-04-24T09:15:54;5.90;;;3.70;;
56073;SDS011;41950;55.840;37.442;2023-04-24T09:18:24;6.70;;;3.75;;
56073;SDS011;41950;55.840;37.442;2023-04-24T09:23:42;9.35;;;4.35;;
56073;SDS011;41950;55.840;37.442;2023-04-24T09:26:09;6.30;;;3.90;;
56073;SDS011;41950;55.840;37.442;2023-04-24T09:28:39;6.80;;;3.90;;
56073;SDS011;41950;55.840;37.442;2023-04-24T09:33:33;7.13;;;4.07;;
56073;SDS011;41950;55.840;37.442;2023-04-24T09:35:59;5.97;;;3.83;;
56073;SDS011;41950;55.840;37.442;2023-04-24T09:38:35;6.07;;;3.80;;
56073;SDS011;41950;55.840;37.442;2023-04-24T09:41:04;7.45;;;4.00;;
56073;SDS011;41950;55.840;37.442;2023-04-24T09:43:31;6.07;;;4.00;;
56073;SDS011;41950;55.840;37.442;2023-04-24T09:46:03;6.25;;;3.97;;
56073;SDS011;41950;55.840;37.442;2023-04-24T09:48:32;5.35;;;3.83;;
56073;SDS011;41950;55.840;37.442;2023-04-24T09:50:59;5.75;;;3.15;;
56073;SDS011;41950;55.840;37.442;2023-04-24T09:53:27;5.07;;;3.35;;
56073;SDS011;41950;55.840;37.442;2023-04-24T09:55:53;4.43;;;3.50;;
56073;SDS011;41950;55.840;37.442;2023-04-24T09:58:25;5.40;;;3.40;;
56073;SDS011;41950;55.840;37.442;2023-04-24T10:00:55;5.10;;;3.85;;
56073;SDS011;41950;55.840;37.442;2023-04-24T10:03:25;5.75;;;3.90;;
56073;SDS011;41950;55.840;37.442;2023-04-24T10:05:54;8.50;;;4.50;;
56073;SDS011;41950;55.840;37.442;2023-04-24T10:08:24;5.03;;;3.30;;
56073;SDS011;41950;55.840;37.442;2023-04-24T10:10:51;6.22;;;3.40;;
56073;SDS011;41950;55.840;37.442;2023-04-24T10:13:17;4.35;;;3.65;;
56073;SDS011;41950;55.840;37.442;2023-04-24T10:15:43;6.68;;;3.72;;
56073;SDS011;41950;55.840;37.442;2023-04-24T10:18:10;4.93;;;3.67;;
56073;SDS011;41950;55.840;37.442;2023-04-24T10:20:37;6.78;;;3.67;;
56073;SDS011;41950;55.840;37.442;2023-04-24T10:23:05;6.22;;;3.90;;
56073;SDS011;41950;55.840;37.442;2023-04-24T10:25:32;5.20;;;3.63;;
56073;SDS011;41950;55.840;37.442;2023-04-24T10:28:00;5.25;;;3.85;;
56073;SDS011;41950;55.840;37.442;2023-04-24T10:30:28;6.70;;;3.30;;
56073;SDS011;41950;55.840;37.442;2023-04-24T10:32:55;5.88;;;3.60;;
56073;SDS011;41950;55.840;37.442;2023-04-24T10:35:21;5.97;;;3.78;;
56073;SDS011;41950;55.840;37.442;2023-04-24T10:40:27;5.47;;;3.60;;
56073;SDS011;41950;55.840;37.442;2023-04-24T10:42:58;6.72;;;3.83;;
56073;SDS011;41950;55.840;37.442;2023-04-24T10:45:27;5.55;;;3.47;;
56073;SDS011;41950;55.840;37.442;2023-04-24T10:48:03;5.45;;;3.45;;
56073;SDS011;41950;55.840;37.442;2023-04-24T10:53:19;4.50;;;3.17;;
56073;SDS011;41950;55.840;37.442;2023-04-24T10:55:58;5.82;;;3.50;;
56073;SDS011;41950;55.840;37.442;2023-04-24T10:58:26;5.45;;;3.42;;
56073;SDS011;41950;55.840;37.442;2023-04-24T11:01:02;4.90;;;3.58;;
56073;SDS011;41950;55.840;37.442;2023-04-24T11:03:29;5.25;;;3.75;;
56073;SDS011;41950;55.840;37.442;2023-04-24T11:08:24;5.60;;;3.50;;
56073;SDS011;41950;55.840;37.442;2023-04-24T11:11:10;5.03;;;3.90;;
56073;SDS011;41950;55.840;37.442;2023-04-24T11:16:23;5.57;;;3.60;;
56073;SDS011;41950;55.840;37.442;2023-04-24T11:18:52;6.47;;;3.60;;
56073;SDS011;41950;55.840;37.442;2023-04-24T11:21:25;5.22;;;3.63;;
56073;SDS011;41950;55.840;37.442;2023-04-24T11:23:51;5.75;;;3.30;;
56073;SDS011;41950;55.840;37.442;2023-04-24T11:26:23;5.97;;;3.30;;
56073;SDS011;41950;55.840;37.442;2023-04-24T11:28:55;4.97;;;3.40;;
56073;SDS011;41950;55.840;37.442;2023-04-24T11:31:39;5.90;;;3.30;;
56073;SDS011;41950;55.840;37.442;2023-04-24T11:34:15;6.60;;;3.55;;
56073;SDS011;41950;55.840;37.442;2023-04-24T11:36:47;7.90;;;4.18;;
56073;SDS011;41950;55.840;37.442;2023-04-24T11:39:13;7.60;;;3.85;;
56073;SDS011;41950;55.840;37.442;2023-04-24T11:41:40;4.93;;;3.55;;
56073;SDS011;41950;55.840;37.442;2023-04-24T11:44:07;5.10;;;3.00;;
56073;SDS011;41950;55.840;37.442;2023-04-24T11:46:34;5.55;;;3.30;;
56073;SDS011;41950;55.840;37.442;2023-04-24T11:48:59;7.07;;;3.50;;
56073;SDS011;41950;55.840;37.442;2023-04-24T11:51:26;4.10;;;2.85;;
56073;SDS011;41950;55.840;37.442;2023-04-24T11:53:56;5.45;;;3.40;;
56073;SDS011;41950;55.840;37.442;2023-04-24T11:56:22;8.27;;;3.90;;
56073;SDS011;41950;55.840;37.442;2023-04-24T11:58:50;5.93;;;4.10;;
56073;SDS011;41950;55.840;37.442;2023-04-24T12:01:18;5.50;;;3.30;;
56073;SDS011;41950;55.840;37.442;2023-04-24T12:03:47;4.90;;;3.20;;
56073;SDS011;41950;55.840;37.442;2023-04-24T12:06:16;6.05;;;3.70;;
56073;SDS011;41950;55.840;37.442;2023-04-24T12:08:45;6.07;;;3.40;;
56073;SDS011;41950;55.840;37.442;2023-04-24T12:11:14;5.43;;;2.92;;
56073;SDS011;41950;55.840;37.442;2023-04-24T12:13:41;4.68;;;2.90;;
56073;SDS011;41950;55.840;37.442;2023-04-24T12:16:06;5.07;;;3.15;;
56073;SDS011;41950;55.840;37.442;2023-04-24T12:18:33;5.60;;;2.97;;
56073;SDS011;41950;55.840;37.442;2023-04-24T12:24:00;4.30;;;2.75;;
56073;SDS011;41950;55.840;37.442;2023-04-24T12:26:26;5.10;;;3.55;;
56073;SDS011;41950;55.840;37.442;2023-04-24T12:28:52;4.30;;;3.20;;
56073;SDS011;41950;55.840;37.442;2023-04-24T12:31:18;5.32;;;3.10;;
56073;SDS011;41950;55.840;37.442;2023-04-24T12:33:46;4.78;;;3.40;;
56073;SDS011;41950;55.840;37.442;2023-04-24T12:36:12;4.40;;;3.30;;
56073;SDS011;41950;55.840;37.442;2023-04-24T12:38:38;5.60;;;3.22;;
56073;SDS011;41950;55.840;37.442;2023-04-24T12:41:07;5.68;;;3.22;;
56073;SDS011;41950;55.840;37.442;2023-04-24T12:43:50;6.05;;;3.50;;
56073;SDS011;41950;55.840;37.442;2023-04-24T12:46:17;5.15;;;3.10;;
56073;SDS011;41950;55.840;37.442;2023-04-24T12:48:43;4.88;;;3.25;;
56073;SDS011;41950;55.840;37.442;2023-04-24T12:51:09;6.68;;;3.55;;
56073;SDS011;41950;55.840;37.442;2023-04-24T12:53:36;5.40;;;3.20;;
56073;SDS011;41950;55.840;37.442;2023-04-24T12:56:01;5.60;;;3.30;;
56073;SDS011;41950;55.840;37.442;2023-04-24T12:58:27;5.05;;;3.33;;
56073;SDS011;41950;55.840;37.442;2023-04-24T13:00:53;5.00;;;3.10;;
56073;SDS011;41950;55.840;37.442;2023-04-24T13:03:19;5.68;;;3.35;;
56073;SDS011;41950;55.840;37.442;2023-04-24T13:05:45;4.78;;;2.70;;
56073;SDS011;41950;55.840;37.442;2023-04-24T13:08:11;4.88;;;2.85;;
56073;SDS011;41950;55.840;37.442;2023-04-24T13:10:38;7.25;;;4.13;;
56073;SDS011;41950;55.840;37.442;2023-04-24T13:13:04;7.22;;;3.90;;
56073;SDS011;41950;55.840;37.442;2023-04-24T13:15:29;5.05;;;3.45;;
56073;SDS011;41950;55.840;37.442;2023-04-24T13:17:55;4.95;;;3.70;;
56073;SDS011;41950;55.840;37.442;2023-04-24T13:20:21;4.10;;;3.00;;
56073;SDS011;41950;55.840;37.442;2023-04-24T13:22:47;4.93;;;2.95;;
56073;SDS011;41950;55.840;37.442;2023-04-24T13:25:12;4.30;;;2.90;;
56073;SDS011;41950;55.840;37.442;2023-04-24T13:27:42;5.28;;;3.10;;
56073;SDS011;41950;55.840;37.442;2023-04-24T13:30:07;5.72;;;3.15;;
56073;SDS011;41950;55.840;37.442;2023-04-24T13:32:34;6.15;;;3.25;;
56073;SDS011;41950;55.840;37.442;2023-04-24T13:35:00;5.65;;;2.90;;
56073;SDS011;41950;55.840;37.442;2023-04-24T13:37:26;5.63;;;3.33;;
56073;SDS011;41950;55.840;37.442;2023-04-24T13:39:52;6.75;;;4.82;;
56073;SDS011;41950;55.840;37.442;2023-04-24T13:42:17;7.07;;;4.10;;
56073;SDS011;41950;55.840;37.442;2023-04-24T13:44:44;6.00;;;3.30;;
56073;SDS011;41950;55.840;37.442;2023-04-24T13:47:09;5.82;;;3.30;;
56073;SDS011;41950;55.840;37.442;2023-04-24T13:49:35;5.10;;;3.42;;
56073;SDS011;41950;55.840;37.442;2023-04-24T13:52:01;12.60;;;3.72;;
56073;SDS011;41950;55.840;37.442;2023-04-24T13:54:27;6.90;;;3.47;;
56073;SDS011;41950;55.840;37.442;2023-04-24T13:56:56;6.40;;;3.60;;
56073;SDS011;41950;55.840;37.442;2023-04-24T13:59:23;7.55;;;3.92;;
56073;SDS011;41950;55.840;37.442;2023-04-24T14:01:49;6.60;;;3.70;;
56073;SDS011;41950;55.840;37.442;2023-04-24T14:04:15;7.15;;;3.10;;
56073;SDS011;41950;55.840;37.442;2023-04-24T14:06:41;5.30;;;3.03;;
56073;SDS011;41950;55.840;37.442;2023-04-24T14:09:06;5.50;;;2.70;;
56073;SDS011;41950;55.840;37.442;2023-04-24T14:11:33;6.45;;;3.05;;
56073;SDS011;41950;55.840;37.442;2023-04-24T14:13:59;6.47;;;3.35;;
56073;SDS011;41950;55.840;37.442;2023-04-24T14:16:25;4.57;;;3.00;;
56073;SDS011;41950;55.840;37.442;2023-04-24T14:18:50;5.97;;;3.83;;
56073;SDS011;41950;55.840;37.442;2023-04-24T14:21:16;7.18;;;2.78;;
56073;SDS011;41950;55.840;37.442;2023-04-24T14:23:42;5.00;;;2.65;;
56073;SDS011;41950;55.840;37.442;2023-04-24T14:26:08;4.97;;;2.90;;
56073;SDS011;41950;55.840;37.442;2023-04-24T14:28:34;7.70;;;3.00;;
56073;SDS011;41950;55.840;37.442;2023-04-24T14:30:59;5.25;;;2.95;;
56073;SDS011;41950;55.840;37.442;2023-04-24T14:33:25;7.13;;;3.30;;
56073;SDS011;41950;55.840;37.442;2023-04-24T14:35:51;6.82;;;3.20;;
56073;SDS011;41950;55.840;37.442;2023-04-24T14:38:16;6.50;;;3.22;;
56073;SDS011;41950;55.840;37.442;2023-04-24T14:40:42;6.90;;;3.65;;
56073;SDS011;41950;55.840;37.442;2023-04-24T14:43:08;5.38;;;3.05;;
56073;SDS011;41950;55.840;37.442;2023-04-24T14:45:34;5.43;;;2.90;;